sensor_id;sensor_type;location;lat;lon;timestamp;P1;durP1;ratioP1;P2;durP2;ratioP2
29724;SDS011;16636;48.394;15.468;2022-07-01T00:00:37;10.88;;;4.05;;
29724;SDS011;16636;48.394;15.468;2022-07-01T00:03:03;6.65;;;5.18;;
29724;SDS011;16636;48.394;15.468;2022-07-01T00:05:30;7.28;;;4.90;;
29724;SDS011;16636;48.394;15.468;2022-07-01T00:11:13;4.75;;;4.25;;
29724;SDS011;16636;48.394;15.468;2022-07-01T00:13:39;5.88;;;4.88;;
29724;SDS011;16636;48.394;15.468;2022-07-01T00:16:06;6.95;;;4.80;;
29724;SDS011;16636;48.394;15.468;2022-07-01T00:18:31;9.38;;;4.63;;
29724;SDS011;16636;48.394;15.468;2022-07-01T00:20:57;5.20;;;4.32;;
29724;SDS011;16636;48.394;15.468;2022-07-01T00:23:26;10.23;;;5.20;;
29724;SDS011;16636;48.394;15.468;2022-07-01T00:25:53;9.93;;;5.30;;
29724;SDS011;16636;48.394;15.468;2022-07-01T00:28:19;6.35;;;4.82;;
29724;SDS011;16636;48.394;15.468;2022-07-01T00:30:45;11.93;;;5.43;;
29724;SDS011;16636;48.394;15.468;2022-07-01T00:33:11;14.18;;;5.13;;
29724;SDS011;16636;48.394;15.468;2022-07-01T00:35:37;10.43;;;4.75;;
29724;SDS011;16636;48.394;15.468;2022-07-01T00:38:03;5.03;;;4.53;;
29724;SDS011;16636;48.394;15.468;2022-07-01T00:40:29;9.75;;;5.20;;
29724;SDS011;16636;48.394;15.468;2022-07-01T00:42:55;6.07;;;4.68;;
29724;SDS011;16636;48.394;15.468;2022-07-01T00:45:21;12.90;;;5.25;;
29724;SDS011;16636;48.394;15.468;2022-07-01T00:47:47;8.48;;;4.90;;
29724;SDS011;16636;48.394;15.468;2022-07-01T00:50:14;7.07;;;5.10;;
29724;SDS011;16636;48.394;15.468;2022-07-01T00:52:41;5.35;;;4.45;;
29724;SDS011;16636;48.394;15.468;2022-07-01T00:55:09;7.32;;;4.30;;
29724;SDS011;16636;48.394;15.468;2022-07-01T00:57:38;11.63;;;4.70;;
29724;SDS011;16636;48.394;15.468;2022-07-01T01:00:09;8.27;;;4.40;;
29724;SDS011;16636;48.394;15.468;2022-07-01T01:02:40;6.85;;;4.30;;
29724;SDS011;16636;48.394;15.468;2022-07-01T01:05:07;8.40;;;4.60;;
29724;SDS011;16636;48.394;15.468;2022-07-01T01:13:40;7.75;;;4.57;;
29724;SDS011;16636;48.394;15.468;2022-07-01T01:16:06;14.35;;;5.35;;
29724;SDS011;16636;48.394;15.468;2022-07-01T01:18:32;8.00;;;4.88;;
29724;SDS011;16636;48.394;15.468;2022-07-01T01:20:59;8.40;;;4.85;;
29724;SDS011;16636;48.394;15.468;2022-07-01T01:23:24;9.45;;;4.63;;
29724;SDS011;16636;48.394;15.468;2022-07-01T01:25:51;7.95;;;5.13;;
29724;SDS011;16636;48.394;15.468;2022-07-01T01:28:17;8.38;;;4.95;;
29724;SDS011;16636;48.394;15.468;2022-07-01T01:30:43;9.88;;;5.03;;
29724;SDS011;16636;48.394;15.468;2022-07-01T01:33:08;13.02;;;5.75;;
29724;SDS011;16636;48.394;15.468;2022-07-01T01:35:37;5.32;;;4.25;;
29724;SDS011;16636;48.394;15.468;2022-07-01T01:38:04;6.43;;;4.50;;
29724;SDS011;16636;48.394;15.468;2022-07-01T01:40:31;7.97;;;4.63;;
29724;SDS011;16636;48.394;15.468;2022-07-01T01:42:57;8.27;;;4.75;;
29724;SDS011;16636;48.394;15.468;2022-07-01T01:45:23;7.43;;;4.57;;
29724;SDS011;16636;48.394;15.468;2022-07-01T01:47:48;10.20;;;4.45;;
29724;SDS011;16636;48.394;15.468;2022-07-01T01:50:14;7.10;;;4.30;;
29724;SDS011;16636;48.394;15.468;2022-07-01T01:52:40;6.65;;;3.63;;
29724;SDS011;16636;48.394;15.468;2022-07-01T01:55:08;10.23;;;3.85;;
29724;SDS011;16636;48.394;15.468;2022-07-01T01:57:35;7.45;;;3.70;;
29724;SDS011;16636;48.394;15.468;2022-07-01T02:00:00;9.10;;;4.40;;
29724;SDS011;16636;48.394;15.468;2022-07-01T02:02:36;7.03;;;4.43;;
29724;SDS011;16636;48.394;15.468;2022-07-01T02:05:06;6.45;;;3.80;;
29724;SDS011;16636;48.394;15.468;2022-07-01T02:07:35;7.85;;;4.22;;
29724;SDS011;16636;48.394;15.468;2022-07-01T02:10:01;5.72;;;3.78;;
29724;SDS011;16636;48.394;15.468;2022-07-01T02:12:27;11.13;;;3.33;;
29724;SDS011;16636;48.394;15.468;2022-07-01T02:14:53;5.85;;;3.78;;
29724;SDS011;16636;48.394;15.468;2022-07-01T02:17:19;12.52;;;4.63;;
29724;SDS011;16636;48.394;15.468;2022-07-01T02:19:45;10.00;;;3.92;;
29724;SDS011;16636;48.394;15.468;2022-07-01T02:22:11;5.40;;;4.00;;
29724;SDS011;16636;48.394;15.468;2022-07-01T02:24:37;8.23;;;3.88;;
29724;SDS011;16636;48.394;15.468;2022-07-01T02:27:03;12.10;;;4.28;;
29724;SDS011;16636;48.394;15.468;2022-07-01T02:29:29;4.80;;;3.60;;
29724;SDS011;16636;48.394;15.468;2022-07-01T02:31:56;6.80;;;3.55;;
29724;SDS011;16636;48.394;15.468;2022-07-01T02:34:22;4.45;;;3.65;;
29724;SDS011;16636;48.394;15.468;2022-07-01T02:36:48;6.78;;;3.70;;
29724;SDS011;16636;48.394;15.468;2022-07-01T02:39:14;12.70;;;3.50;;
29724;SDS011;16636;48.394;15.468;2022-07-01T02:41:40;7.85;;;3.53;;
29724;SDS011;16636;48.394;15.468;2022-07-01T02:44:25;7.60;;;3.17;;
29724;SDS011;16636;48.394;15.468;2022-07-01T02:46:51;5.25;;;3.67;;
29724;SDS011;16636;48.394;15.468;2022-07-01T02:49:16;9.85;;;3.67;;
29724;SDS011;16636;48.394;15.468;2022-07-01T02:51:42;4.32;;;2.70;;
29724;SDS011;16636;48.394;15.468;2022-07-01T02:54:08;5.20;;;3.08;;
29724;SDS011;16636;48.394;15.468;2022-07-01T02:56:35;7.68;;;2.65;;
29724;SDS011;16636;48.394;15.468;2022-07-01T02:59:00;4.93;;;2.97;;
29724;SDS011;16636;48.394;15.468;2022-07-01T03:01:26;6.57;;;3.15;;
29724;SDS011;16636;48.394;15.468;2022-07-01T03:03:52;12.10;;;3.28;;
29724;SDS011;16636;48.394;15.468;2022-07-01T03:06:18;3.83;;;2.92;;
29724;SDS011;16636;48.394;15.468;2022-07-01T03:08:44;9.75;;;3.33;;
29724;SDS011;16636;48.394;15.468;2022-07-01T03:11:10;9.15;;;3.33;;
29724;SDS011;16636;48.394;15.468;2022-07-01T03:13:36;3.78;;;2.75;;
29724;SDS011;16636;48.394;15.468;2022-07-01T03:16:01;5.78;;;2.50;;
29724;SDS011;16636;48.394;15.468;2022-07-01T03:18:28;4.63;;;3.08;;
29724;SDS011;16636;48.394;15.468;2022-07-01T03:20:54;7.20;;;3.10;;
29724;SDS011;16636;48.394;15.468;2022-07-01T03:23:19;3.92;;;2.03;;
29724;SDS011;16636;48.394;15.468;2022-07-01T03:25:45;9.35;;;2.70;;
29724;SDS011;16636;48.394;15.468;2022-07-01T03:28:11;3.97;;;2.17;;
29724;SDS011;16636;48.394;15.468;2022-07-01T03:30:38;2.42;;;1.92;;
29724;SDS011;16636;48.394;15.468;2022-07-01T03:33:04;3.50;;;2.13;;
29724;SDS011;16636;48.394;15.468;2022-07-01T03:35:30;3.45;;;2.30;;
29724;SDS011;16636;48.394;15.468;2022-07-01T03:38:10;6.82;;;2.60;;
29724;SDS011;16636;48.394;15.468;2022-07-01T03:40:39;3.97;;;2.38;;
29724;SDS011;16636;48.394;15.468;2022-07-01T03:43:06;3.78;;;2.08;;
29724;SDS011;16636;48.394;15.468;2022-07-01T03:45:32;3.60;;;2.25;;
29724;SDS011;16636;48.394;15.468;2022-07-01T03:47:58;5.57;;;2.83;;
29724;SDS011;16636;48.394;15.468;2022-07-01T03:50:24;18.70;;;2.65;;
29724;SDS011;16636;48.394;15.468;2022-07-01T03:56:12;2.70;;;2.25;;
29724;SDS011;16636;48.394;15.468;2022-07-01T03:58:38;8.10;;;2.63;;
29724;SDS011;16636;48.394;15.468;2022-07-01T04:01:04;10.20;;;2.67;;
29724;SDS011;16636;48.394;15.468;2022-07-01T04:03:30;3.42;;;2.60;;
29724;SDS011;16636;48.394;15.468;2022-07-01T04:05:56;4.00;;;2.20;;
29724;SDS011;16636;48.394;15.468;2022-07-01T04:08:23;5.88;;;2.33;;
29724;SDS011;16636;48.394;15.468;2022-07-01T04:10:50;3.67;;;2.60;;
29724;SDS011;16636;48.394;15.468;2022-07-01T04:13:18;11.85;;;2.50;;
29724;SDS011;16636;48.394;15.468;2022-07-01T04:15:44;9.80;;;2.60;;
29724;SDS011;16636;48.394;15.468;2022-07-01T04:18:11;5.63;;;2.17;;
29724;SDS011;16636;48.394;15.468;2022-07-01T04:20:37;3.10;;;2.03;;
29724;SDS011;16636;48.394;15.468;2022-07-01T04:23:03;5.22;;;2.55;;
29724;SDS011;16636;48.394;15.468;2022-07-01T04:25:29;6.22;;;2.33;;
29724;SDS011;16636;48.394;15.468;2022-07-01T04:27:56;4.80;;;2.38;;
29724;SDS011;16636;48.394;15.468;2022-07-01T04:30:22;5.13;;;1.92;;
29724;SDS011;16636;48.394;15.468;2022-07-01T04:32:48;5.00;;;1.83;;
29724;SDS011;16636;48.394;15.468;2022-07-01T04:35:14;3.00;;;1.45;;
29724;SDS011;16636;48.394;15.468;2022-07-01T04:37:40;3.15;;;1.73;;
29724;SDS011;16636;48.394;15.468;2022-07-01T04:40:06;3.60;;;1.38;;
29724;SDS011;16636;48.394;15.468;2022-07-01T04:42:33;2.85;;;1.40;;
29724;SDS011;16636;48.394;15.468;2022-07-01T04:44:59;4.45;;;1.48;;
29724;SDS011;16636;48.394;15.468;2022-07-01T04:47:25;2.80;;;1.52;;
29724;SDS011;16636;48.394;15.468;2022-07-01T04:49:51;6.40;;;1.25;;
29724;SDS011;16636;48.394;15.468;2022-07-01T04:52:16;1.73;;;1.20;;
29724;SDS011;16636;48.394;15.468;2022-07-01T04:54:42;2.53;;;1.00;;
29724;SDS011;16636;48.394;15.468;2022-07-01T04:57:08;2.17;;;1.00;;
29724;SDS011;16636;48.394;15.468;2022-07-01T04:59:34;2.60;;;1.25;;
29724;SDS011;16636;48.394;15.468;2022-07-01T05:02:01;6.18;;;1.20;;
29724;SDS011;16636;48.394;15.468;2022-07-01T05:04:27;4.00;;;1.40;;
29724;SDS011;16636;48.394;15.468;2022-07-01T05:06:53;2.28;;;1.30;;
29724;SDS011;16636;48.394;15.468;2022-07-01T05:09:19;2.10;;;1.10;;
29724;SDS011;16636;48.394;15.468;2022-07-01T05:11:45;6.75;;;1.67;;
29724;SDS011;16636;48.394;15.468;2022-07-01T05:14:11;5.60;;;1.45;;
29724;SDS011;16636;48.394;15.468;2022-07-01T05:16:37;7.43;;;1.27;;
29724;SDS011;16636;48.394;15.468;2022-07-01T05:19:03;3.30;;;1.00;;
29724;SDS011;16636;48.394;15.468;2022-07-01T05:21:48;11.20;;;1.10;;
29724;SDS011;16636;48.394;15.468;2022-07-01T05:24:34;1.48;;;0.98;;
29724;SDS011;16636;48.394;15.468;2022-07-01T05:27:00;4.80;;;1.10;;
29724;SDS011;16636;48.394;15.468;2022-07-01T05:29:27;3.10;;;1.48;;
29724;SDS011;16636;48.394;15.468;2022-07-01T05:31:55;3.53;;;0.77;;
29724;SDS011;16636;48.394;15.468;2022-07-01T05:34:21;3.92;;;0.90;;
29724;SDS011;16636;48.394;15.468;2022-07-01T05:36:47;5.07;;;1.10;;
29724;SDS011;16636;48.394;15.468;2022-07-01T05:39:13;2.17;;;1.10;;
29724;SDS011;16636;48.394;15.468;2022-07-01T05:41:41;3.22;;;0.98;;
29724;SDS011;16636;48.394;15.468;2022-07-01T05:44:14;1.40;;;1.05;;
29724;SDS011;16636;48.394;15.468;2022-07-01T05:46:40;1.05;;;0.80;;
29724;SDS011;16636;48.394;15.468;2022-07-01T05:49:06;6.60;;;1.00;;
29724;SDS011;16636;48.394;15.468;2022-07-01T05:51:32;2.65;;;1.10;;
29724;SDS011;16636;48.394;15.468;2022-07-01T05:53:57;6.00;;;1.05;;
29724;SDS011;16636;48.394;15.468;2022-07-01T05:56:24;1.15;;;0.75;;
29724;SDS011;16636;48.394;15.468;2022-07-01T05:58:50;1.80;;;1.00;;
29724;SDS011;16636;48.394;15.468;2022-07-01T06:01:17;3.28;;;1.40;;
29724;SDS011;16636;48.394;15.468;2022-07-01T06:03:43;7.13;;;1.23;;
29724;SDS011;16636;48.394;15.468;2022-07-01T06:06:09;5.05;;;1.23;;
29724;SDS011;16636;48.394;15.468;2022-07-01T06:08:35;3.42;;;1.20;;
29724;SDS011;16636;48.394;15.468;2022-07-01T06:11:01;6.22;;;1.27;;
29724;SDS011;16636;48.394;15.468;2022-07-01T06:13:27;8.85;;;1.90;;
29724;SDS011;16636;48.394;15.468;2022-07-01T06:15:54;2.35;;;1.48;;
29724;SDS011;16636;48.394;15.468;2022-07-01T06:18:22;6.03;;;1.83;;
29724;SDS011;16636;48.394;15.468;2022-07-01T06:20:48;2.45;;;1.90;;
29724;SDS011;16636;48.394;15.468;2022-07-01T06:23:14;1.92;;;1.60;;
29724;SDS011;16636;48.394;15.468;2022-07-01T06:25:40;4.15;;;1.50;;
29724;SDS011;16636;48.394;15.468;2022-07-01T06:28:06;5.78;;;1.80;;
29724;SDS011;16636;48.394;15.468;2022-07-01T06:30:32;8.23;;;2.15;;
29724;SDS011;16636;48.394;15.468;2022-07-01T06:32:58;8.57;;;2.10;;
29724;SDS011;16636;48.394;15.468;2022-07-01T06:35:24;7.88;;;2.28;;
29724;SDS011;16636;48.394;15.468;2022-07-01T06:37:50;6.30;;;2.45;;
29724;SDS011;16636;48.394;15.468;2022-07-01T06:40:16;4.07;;;2.35;;
29724;SDS011;16636;48.394;15.468;2022-07-01T06:42:41;5.85;;;2.67;;
29724;SDS011;16636;48.394;15.468;2022-07-01T06:45:07;5.97;;;2.63;;
29724;SDS011;16636;48.394;15.468;2022-07-01T06:47:34;5.20;;;2.30;;
29724;SDS011;16636;48.394;15.468;2022-07-01T06:50:00;11.10;;;2.70;;
29724;SDS011;16636;48.394;15.468;2022-07-01T06:52:26;6.55;;;2.53;;
29724;SDS011;16636;48.394;15.468;2022-07-01T06:54:52;16.92;;;3.38;;
29724;SDS011;16636;48.394;15.468;2022-07-01T06:57:18;9.88;;;2.60;;
29724;SDS011;16636;48.394;15.468;2022-07-01T06:59:44;28.02;;;6.15;;
29724;SDS011;16636;48.394;15.468;2022-07-01T07:02:09;8.43;;;3.00;;
29724;SDS011;16636;48.394;15.468;2022-07-01T07:04:35;5.20;;;2.92;;
29724;SDS011;16636;48.394;15.468;2022-07-01T07:10:56;13.80;;;2.55;;
29724;SDS011;16636;48.394;15.468;2022-07-01T07:13:22;4.30;;;2.50;;
29724;SDS011;16636;48.394;15.468;2022-07-01T07:15:48;4.78;;;2.67;;
29724;SDS011;16636;48.394;15.468;2022-07-01T07:18:14;4.00;;;2.90;;
29724;SDS011;16636;48.394;15.468;2022-07-01T07:20:39;6.70;;;2.45;;
29724;SDS011;16636;48.394;15.468;2022-07-01T07:23:06;5.25;;;2.28;;
29724;SDS011;16636;48.394;15.468;2022-07-01T07:25:31;5.93;;;2.10;;
29724;SDS011;16636;48.394;15.468;2022-07-01T07:27:58;3.95;;;2.13;;
29724;SDS011;16636;48.394;15.468;2022-07-01T07:30:24;7.10;;;2.50;;
29724;SDS011;16636;48.394;15.468;2022-07-01T07:35:53;7.25;;;2.22;;
29724;SDS011;16636;48.394;15.468;2022-07-01T07:38:19;3.85;;;2.42;;
29724;SDS011;16636;48.394;15.468;2022-07-01T07:40:45;4.45;;;2.50;;
29724;SDS011;16636;48.394;15.468;2022-07-01T07:43:11;3.47;;;2.88;;
29724;SDS011;16636;48.394;15.468;2022-07-01T07:45:37;6.13;;;2.22;;
29724;SDS011;16636;48.394;15.468;2022-07-01T07:48:03;2.38;;;2.17;;
29724;SDS011;16636;48.394;15.468;2022-07-01T07:50:31;6.72;;;2.85;;
29724;SDS011;16636;48.394;15.468;2022-07-01T07:52:57;3.97;;;2.22;;
29724;SDS011;16636;48.394;15.468;2022-07-01T07:55:23;7.78;;;2.70;;
29724;SDS011;16636;48.394;15.468;2022-07-01T07:57:49;4.28;;;2.25;;
29724;SDS011;16636;48.394;15.468;2022-07-01T08:00:15;6.38;;;2.22;;
29724;SDS011;16636;48.394;15.468;2022-07-01T08:02:42;4.57;;;2.60;;
29724;SDS011;16636;48.394;15.468;2022-07-01T08:05:08;6.10;;;2.50;;
29724;SDS011;16636;48.394;15.468;2022-07-01T08:07:40;8.02;;;2.63;;
29724;SDS011;16636;48.394;15.468;2022-07-01T08:10:08;8.25;;;3.15;;
29724;SDS011;16636;48.394;15.468;2022-07-01T08:12:36;5.13;;;2.75;;
29724;SDS011;16636;48.394;15.468;2022-07-01T08:15:03;6.20;;;2.60;;
29724;SDS011;16636;48.394;15.468;2022-07-01T08:17:29;10.25;;;2.67;;
29724;SDS011;16636;48.394;15.468;2022-07-01T08:19:55;7.25;;;3.78;;
29724;SDS011;16636;48.394;15.468;2022-07-01T08:22:21;6.68;;;3.17;;
29724;SDS011;16636;48.394;15.468;2022-07-01T08:24:48;7.50;;;3.42;;
29724;SDS011;16636;48.394;15.468;2022-07-01T08:27:14;3.53;;;2.30;;
29724;SDS011;16636;48.394;15.468;2022-07-01T08:29:40;4.43;;;3.15;;
29724;SDS011;16636;48.394;15.468;2022-07-01T08:32:07;7.10;;;3.05;;
29724;SDS011;16636;48.394;15.468;2022-07-01T08:34:34;6.55;;;3.20;;
29724;SDS011;16636;48.394;15.468;2022-07-01T08:37:01;5.78;;;2.65;;
29724;SDS011;16636;48.394;15.468;2022-07-01T08:39:28;5.65;;;2.63;;
29724;SDS011;16636;48.394;15.468;2022-07-01T08:41:54;13.43;;;3.75;;
29724;SDS011;16636;48.394;15.468;2022-07-01T08:44:20;5.82;;;3.53;;
29724;SDS011;16636;48.394;15.468;2022-07-01T08:46:46;4.85;;;3.03;;
29724;SDS011;16636;48.394;15.468;2022-07-01T08:49:12;6.55;;;3.47;;
29724;SDS011;16636;48.394;15.468;2022-07-01T08:51:39;7.55;;;3.08;;
29724;SDS011;16636;48.394;15.468;2022-07-01T08:54:04;8.57;;;3.20;;
29724;SDS011;16636;48.394;15.468;2022-07-01T08:56:30;10.07;;;2.97;;
29724;SDS011;16636;48.394;15.468;2022-07-01T08:59:11;10.32;;;2.40;;
29724;SDS011;16636;48.394;15.468;2022-07-01T09:01:46;8.38;;;2.95;;
29724;SDS011;16636;48.394;15.468;2022-07-01T09:04:19;9.40;;;2.70;;
29724;SDS011;16636;48.394;15.468;2022-07-01T09:06:46;8.00;;;3.30;;
29724;SDS011;16636;48.394;15.468;2022-07-01T09:09:17;7.50;;;3.35;;
29724;SDS011;16636;48.394;15.468;2022-07-01T09:11:46;5.30;;;2.95;;
29724;SDS011;16636;48.394;15.468;2022-07-01T09:14:23;3.28;;;2.63;;
29724;SDS011;16636;48.394;15.468;2022-07-01T09:16:51;3.63;;;2.92;;
29724;SDS011;16636;48.394;15.468;2022-07-01T09:19:21;5.60;;;3.08;;
29724;SDS011;16636;48.394;15.468;2022-07-01T09:21:51;6.38;;;2.72;;
29724;SDS011;16636;48.394;15.468;2022-07-01T09:29:27;7.43;;;2.70;;
29724;SDS011;16636;48.394;15.468;2022-07-01T09:32:01;5.07;;;2.92;;
29724;SDS011;16636;48.394;15.468;2022-07-01T09:34:35;5.35;;;2.75;;
29724;SDS011;16636;48.394;15.468;2022-07-01T09:37:12;4.00;;;2.60;;
29724;SDS011;16636;48.394;15.468;2022-07-01T09:39:43;6.57;;;2.97;;
29724;SDS011;16636;48.394;15.468;2022-07-01T09:42:10;6.43;;;2.25;;
29724;SDS011;16636;48.394;15.468;2022-07-01T09:44:50;4.93;;;2.85;;
29724;SDS011;16636;48.394;15.468;2022-07-01T09:47:22;3.53;;;2.30;;
29724;SDS011;16636;48.394;15.468;2022-07-01T09:49:52;3.55;;;2.70;;
29724;SDS011;16636;48.394;15.468;2022-07-01T09:52:20;6.75;;;2.60;;
29724;SDS011;16636;48.394;15.468;2022-07-01T09:54:47;8.57;;;3.75;;
29724;SDS011;16636;48.394;15.468;2022-07-01T09:57:14;7.30;;;3.10;;
29724;SDS011;16636;48.394;15.468;2022-07-01T09:59:41;6.22;;;3.20;;
29724;SDS011;16636;48.394;15.468;2022-07-01T10:02:07;3.78;;;2.70;;
29724;SDS011;16636;48.394;15.468;2022-07-01T10:04:35;4.60;;;2.70;;
29724;SDS011;16636;48.394;15.468;2022-07-01T10:07:13;7.18;;;2.55;;
29724;SDS011;16636;48.394;15.468;2022-07-01T10:10:22;4.43;;;2.53;;
29724;SDS011;16636;48.394;15.468;2022-07-01T10:12:53;4.15;;;2.47;;
29724;SDS011;16636;48.394;15.468;2022-07-01T10:15:20;4.20;;;2.65;;
29724;SDS011;16636;48.394;15.468;2022-07-01T10:17:48;6.78;;;3.10;;
29724;SDS011;16636;48.394;15.468;2022-07-01T10:20:18;4.47;;;2.95;;
29724;SDS011;16636;48.394;15.468;2022-07-01T10:22:53;5.70;;;2.80;;
29724;SDS011;16636;48.394;15.468;2022-07-01T10:25:45;5.78;;;2.90;;
29724;SDS011;16636;48.394;15.468;2022-07-01T10:31:17;4.85;;;2.95;;
29724;SDS011;16636;48.394;15.468;2022-07-01T10:41:29;3.95;;;2.88;;
29724;SDS011;16636;48.394;15.468;2022-07-01T10:43:57;5.78;;;2.28;;
29724;SDS011;16636;48.394;15.468;2022-07-01T10:46:40;4.60;;;2.83;;
29724;SDS011;16636;48.394;15.468;2022-07-01T10:49:10;5.55;;;3.20;;
29724;SDS011;16636;48.394;15.468;2022-07-01T10:51:50;5.32;;;2.97;;
29724;SDS011;16636;48.394;15.468;2022-07-01T10:54:54;4.65;;;2.47;;
29724;SDS011;16636;48.394;15.468;2022-07-01T10:59:56;2.70;;;2.17;;
29724;SDS011;16636;48.394;15.468;2022-07-01T11:02:41;4.05;;;3.13;;
29724;SDS011;16636;48.394;15.468;2022-07-01T11:05:08;4.70;;;2.60;;
29724;SDS011;16636;48.394;15.468;2022-07-01T11:07:41;3.47;;;2.45;;
29724;SDS011;16636;48.394;15.468;2022-07-01T11:10:13;4.72;;;2.47;;
29724;SDS011;16636;48.394;15.468;2022-07-01T11:12:41;5.57;;;2.22;;
29724;SDS011;16636;48.394;15.468;2022-07-01T11:15:09;5.65;;;2.67;;
29724;SDS011;16636;48.394;15.468;2022-07-01T11:20:36;4.15;;;2.83;;
29724;SDS011;16636;48.394;15.468;2022-07-01T11:23:02;7.03;;;2.33;;
29724;SDS011;16636;48.394;15.468;2022-07-01T11:25:29;2.70;;;2.30;;
29724;SDS011;16636;48.394;15.468;2022-07-01T11:27:55;6.43;;;2.80;;
29724;SDS011;16636;48.394;15.468;2022-07-01T11:30:21;5.95;;;2.75;;
29724;SDS011;16636;48.394;15.468;2022-07-01T11:32:54;3.50;;;2.55;;
29724;SDS011;16636;48.394;15.468;2022-07-01T11:35:22;4.35;;;2.38;;
29724;SDS011;16636;48.394;15.468;2022-07-01T11:38:12;5.30;;;2.58;;
29724;SDS011;16636;48.394;15.468;2022-07-01T11:40:58;5.72;;;2.80;;
29724;SDS011;16636;48.394;15.468;2022-07-01T11:43:39;5.95;;;2.75;;
29724;SDS011;16636;48.394;15.468;2022-07-01T11:46:06;4.50;;;2.33;;
29724;SDS011;16636;48.394;15.468;2022-07-01T11:48:40;3.65;;;2.40;;
29724;SDS011;16636;48.394;15.468;2022-07-01T11:51:09;4.70;;;2.92;;
29724;SDS011;16636;48.394;15.468;2022-07-01T11:53:44;5.90;;;2.83;;
29724;SDS011;16636;48.394;15.468;2022-07-01T11:56:14;4.20;;;3.15;;
29724;SDS011;16636;48.394;15.468;2022-07-01T11:58:42;6.00;;;3.15;;
29724;SDS011;16636;48.394;15.468;2022-07-01T12:01:09;8.13;;;2.70;;
29724;SDS011;16636;48.394;15.468;2022-07-01T12:03:36;3.65;;;2.92;;
29724;SDS011;16636;48.394;15.468;2022-07-01T12:06:03;3.17;;;2.05;;
29724;SDS011;16636;48.394;15.468;2022-07-01T12:08:31;2.78;;;2.33;;
29724;SDS011;16636;48.394;15.468;2022-07-01T12:10:57;7.47;;;2.70;;
29724;SDS011;16636;48.394;15.468;2022-07-01T12:13:26;3.22;;;2.55;;
29724;SDS011;16636;48.394;15.468;2022-07-01T12:15:52;2.80;;;2.38;;
29724;SDS011;16636;48.394;15.468;2022-07-01T12:18:19;7.55;;;3.05;;
29724;SDS011;16636;48.394;15.468;2022-07-01T12:20:48;8.48;;;2.67;;
29724;SDS011;16636;48.394;15.468;2022-07-01T12:23:16;3.05;;;2.50;;
29724;SDS011;16636;48.394;15.468;2022-07-01T12:25:48;8.40;;;2.70;;
29724;SDS011;16636;48.394;15.468;2022-07-01T12:28:27;7.22;;;2.55;;
29724;SDS011;16636;48.394;15.468;2022-07-01T12:31:04;7.97;;;3.03;;
29724;SDS011;16636;48.394;15.468;2022-07-01T12:33:35;8.05;;;2.78;;
29724;SDS011;16636;48.394;15.468;2022-07-01T12:36:13;5.88;;;2.72;;
29724;SDS011;16636;48.394;15.468;2022-07-01T12:38:41;3.75;;;2.80;;
29724;SDS011;16636;48.394;15.468;2022-07-01T12:43:54;3.53;;;2.35;;
29724;SDS011;16636;48.394;15.468;2022-07-01T12:46:26;6.10;;;2.75;;
29724;SDS011;16636;48.394;15.468;2022-07-01T12:48:53;3.90;;;2.40;;
29724;SDS011;16636;48.394;15.468;2022-07-01T12:51:19;4.25;;;2.70;;
29724;SDS011;16636;48.394;15.468;2022-07-01T12:53:46;4.03;;;2.47;;
29724;SDS011;16636;48.394;15.468;2022-07-01T12:56:22;5.25;;;2.13;;
29724;SDS011;16636;48.394;15.468;2022-07-01T12:58:50;2.58;;;2.30;;
29724;SDS011;16636;48.394;15.468;2022-07-01T13:01:20;5.38;;;2.47;;
29724;SDS011;16636;48.394;15.468;2022-07-01T13:03:46;5.32;;;2.80;;
29724;SDS011;16636;48.394;15.468;2022-07-01T13:06:13;6.90;;;2.50;;
29724;SDS011;16636;48.394;15.468;2022-07-01T13:08:39;6.22;;;2.83;;
29724;SDS011;16636;48.394;15.468;2022-07-01T13:11:05;3.78;;;2.50;;
29724;SDS011;16636;48.394;15.468;2022-07-01T13:13:31;5.28;;;2.80;;
29724;SDS011;16636;48.394;15.468;2022-07-01T13:15:57;7.53;;;3.22;;
29724;SDS011;16636;48.394;15.468;2022-07-01T13:18:23;5.65;;;2.85;;
29724;SDS011;16636;48.394;15.468;2022-07-01T13:20:49;6.88;;;2.97;;
29724;SDS011;16636;48.394;15.468;2022-07-01T13:23:15;4.10;;;2.33;;
29724;SDS011;16636;48.394;15.468;2022-07-01T13:25:42;3.47;;;2.78;;
29724;SDS011;16636;48.394;15.468;2022-07-01T13:28:08;5.10;;;2.50;;
29724;SDS011;16636;48.394;15.468;2022-07-01T13:30:35;9.07;;;3.28;;
29724;SDS011;16636;48.394;15.468;2022-07-01T13:33:02;5.55;;;2.90;;
29724;SDS011;16636;48.394;15.468;2022-07-01T13:35:28;7.13;;;3.10;;
29724;SDS011;16636;48.394;15.468;2022-07-01T13:37:54;6.72;;;3.17;;
29724;SDS011;16636;48.394;15.468;2022-07-01T13:40:20;8.07;;;3.05;;
29724;SDS011;16636;48.394;15.468;2022-07-01T13:42:49;3.95;;;2.95;;
29724;SDS011;16636;48.394;15.468;2022-07-01T13:45:15;3.35;;;2.55;;
29724;SDS011;16636;48.394;15.468;2022-07-01T13:47:41;6.03;;;3.13;;
29724;SDS011;16636;48.394;15.468;2022-07-01T13:50:07;11.60;;;3.42;;
29724;SDS011;16636;48.394;15.468;2022-07-01T13:52:34;4.75;;;3.20;;
29724;SDS011;16636;48.394;15.468;2022-07-01T13:55:00;6.13;;;3.08;;
29724;SDS011;16636;48.394;15.468;2022-07-01T13:57:26;4.03;;;3.00;;
29724;SDS011;16636;48.394;15.468;2022-07-01T13:59:52;9.73;;;3.25;;
29724;SDS011;16636;48.394;15.468;2022-07-01T14:02:19;5.55;;;2.97;;
29724;SDS011;16636;48.394;15.468;2022-07-01T14:04:48;5.97;;;2.80;;
29724;SDS011;16636;48.394;15.468;2022-07-01T14:07:14;4.00;;;3.40;;
29724;SDS011;16636;48.394;15.468;2022-07-01T14:09:40;4.35;;;2.95;;
29724;SDS011;16636;48.394;15.468;2022-07-01T14:12:06;4.15;;;3.40;;
29724;SDS011;16636;48.394;15.468;2022-07-01T14:14:33;3.67;;;2.78;;
29724;SDS011;16636;48.394;15.468;2022-07-01T14:16:58;7.35;;;3.17;;
29724;SDS011;16636;48.394;15.468;2022-07-01T14:19:24;3.75;;;3.08;;
29724;SDS011;16636;48.394;15.468;2022-07-01T14:21:52;5.28;;;3.03;;
29724;SDS011;16636;48.394;15.468;2022-07-01T14:24:19;7.20;;;3.70;;
29724;SDS011;16636;48.394;15.468;2022-07-01T14:26:46;7.75;;;3.25;;
29724;SDS011;16636;48.394;15.468;2022-07-01T14:29:12;4.68;;;3.28;;
29724;SDS011;16636;48.394;15.468;2022-07-01T14:31:38;6.65;;;3.13;;
29724;SDS011;16636;48.394;15.468;2022-07-01T14:34:05;6.85;;;3.30;;
29724;SDS011;16636;48.394;15.468;2022-07-01T14:36:31;5.90;;;3.53;;
29724;SDS011;16636;48.394;15.468;2022-07-01T14:38:57;6.45;;;4.22;;
29724;SDS011;16636;48.394;15.468;2022-07-01T14:41:23;7.15;;;3.53;;
29724;SDS011;16636;48.394;15.468;2022-07-01T14:43:49;11.95;;;3.65;;
29724;SDS011;16636;48.394;15.468;2022-07-01T14:46:15;4.50;;;3.30;;
29724;SDS011;16636;48.394;15.468;2022-07-01T14:51:42;5.70;;;3.22;;
29724;SDS011;16636;48.394;15.468;2022-07-01T14:54:08;7.47;;;3.25;;
29724;SDS011;16636;48.394;15.468;2022-07-01T14:56:34;5.05;;;3.45;;
29724;SDS011;16636;48.394;15.468;2022-07-01T14:59:00;5.50;;;3.03;;
29724;SDS011;16636;48.394;15.468;2022-07-01T15:01:26;5.78;;;3.30;;
29724;SDS011;16636;48.394;15.468;2022-07-01T15:03:52;2.83;;;2.60;;
29724;SDS011;16636;48.394;15.468;2022-07-01T15:06:18;3.65;;;2.80;;
29724;SDS011;16636;48.394;15.468;2022-07-01T15:08:44;6.88;;;2.40;;
29724;SDS011;16636;48.394;15.468;2022-07-01T15:11:10;6.82;;;2.55;;
29724;SDS011;16636;48.394;15.468;2022-07-01T15:13:36;3.88;;;2.22;;
29724;SDS011;16636;48.394;15.468;2022-07-01T15:16:03;5.05;;;2.47;;
29724;SDS011;16636;48.394;15.468;2022-07-01T15:18:29;3.15;;;1.95;;
29724;SDS011;16636;48.394;15.468;2022-07-01T15:20:57;3.47;;;2.00;;
29724;SDS011;16636;48.394;15.468;2022-07-01T15:23:23;5.65;;;2.00;;